X  Fermer Données météorologiques d'aviation de Metar     EHKD De Kooy Airport
Température
45°F Température
41°F Point de rosée
87% Humidité



Vent
9 MPH
14 KM/H
4 M/S
8 KTS



110°
ESE
Conditions actuelles

Plutôt nuageux Plutôt nuageux
Pression 997.97 (hPa) - 29.47 (inHg)
Visibilité 6 (mile) - 9.7 (km)
Aéroport
Code de l'aéroport EHKD

Emplacement: De Kooy Airport
Distance: 34 (mi)

Metar:
EHKD 012125Z AUTO 11008KT 080V140 9999 BKN031 BKN041 OVC058 07/05 Q0998 BLU

Temps: 01-03-2024 22:25 CET